Time,TemperatureF,DewpointF,PressureIn,WindDirection,WindDirectionDegrees,WindSpeedMPH,WindSpeedGustMPH,Humidity,HourlyPrecipIn,Conditions,Clouds,dailyrainin,SoftwareType,DateUTC
2013-07-06 00:01:00,72.0,64.0,-100.00,ESE,123,0.0,1.0,76,0.00,,,0.00,meteohub,2013-07-06 05:01:00,
2013-07-06 00:06:00,71.8,63.9,-100.00,ESE,122,0.0,1.0,76,0.00,,,0.00,meteohub,2013-07-06 05:06:00,
2013-07-06 00:11:00,71.8,64.2,-100.00,ESE,123,0.0,3.0,77,0.00,,,0.00,meteohub,2013-07-06 05:11:00,
2013-07-06 00:16:00,71.8,64.2,-100.00,ESE,123,0.0,3.0,77,0.00,,,0.00,meteohub,2013-07-06 05:16:00,
2013-07-06 00:21:00,71.8,64.2,-100.00,ESE,123,0.0,2.0,77,0.00,,,0.00,meteohub,2013-07-06 05:21:00,
2013-07-06 00:26:00,71.4,63.9,-100.00,ESE,123,0.0,0.0,77,0.00,,,0.00,meteohub,2013-07-06 05:26:00,
2013-07-06 00:31:00,71.2,63.7,-100.00,ESE,123,0.0,0.0,77,0.00,,,0.00,meteohub,2013-07-06 05:31:00,
2013-07-06 00:36:00,71.2,64.0,-100.00,ESE,123,0.0,0.0,78,0.00,,,0.00,meteohub,2013-07-06 05:36:00,
2013-07-06 00:41:00,71.2,64.0,-100.00,ESE,123,1.0,0.0,78,0.00,,,0.00,meteohub,2013-07-06 05:41:00,
2013-07-06 00:46:00,71.2,64.0,-100.00,ESE,122,0.0,1.0,78,0.00,,,0.00,meteohub,2013-07-06 05:46:00,
2013-07-06 00:51:00,71.2,64.0,-100.00,ESE,122,0.0,1.0,78,0.00,,,0.00,meteohub,2013-07-06 05:51:00,
2013-07-06 00:56:00,71.1,63.9,-100.00,ESE,122,0.0,1.0,78,0.00,,,0.00,meteohub,2013-07-06 05:56:00,
2013-07-06 01:01:00,70.9,64.0,-100.00,ESE,122,0.0,1.0,79,0.00,,,0.00,meteohub,2013-07-06 06:01:00,
2013-07-06 01:06:00,70.7,63.9,-100.00,ESE,122,0.0,1.0,79,0.00,,,0.00,meteohub,2013-07-06 06:06:00,
2013-07-06 01:11:00,70.5,63.7,-100.00,ESE,122,0.0,1.0,79,0.00,,,0.00,meteohub,2013-07-06 06:11:00,
2013-07-06 01:16:00,70.3,63.9,-100.00,ESE,122,0.0,1.0,80,0.00,,,0.00,meteohub,2013-07-06 06:16:00,
2013-07-06 01:21:00,70.0,63.5,-100.00,ESE,122,0.0,1.0,80,0.00,,,0.00,meteohub,2013-07-06 06:21:00,
2013-07-06 01:26:00,69.8,63.7,-100.00,ESE,122,0.0,1.0,81,0.00,,,0.00,meteohub,2013-07-06 06:26:00,
2013-07-06 01:31:00,69.6,63.5,-100.00,ESE,122,0.0,0.0,81,0.00,,,0.00,meteohub,2013-07-06 06:31:00,
2013-07-06 01:32:00,69.6,63.5,-100.00,ESE,122,0.0,0.0,81,0.00,,,0.00,meteohub,2013-07-06 06:32:00,
2013-07-06 01:37:00,69.4,63.3,-100.00,ESE,122,0.0,1.0,81,0.00,,,0.00,meteohub,2013-07-06 06:37:00,
2013-07-06 01:42:00,69.4,63.3,-100.00,ESE,122,0.0,1.0,81,0.00,,,0.00,meteohub,2013-07-06 06:42:00,
2013-07-06 01:47:00,69.1,63.0,-100.00,ESE,122,0.0,1.0,81,0.00,,,0.00,meteohub,2013-07-06 06:47:00,
2013-07-06 01:52:00,68.7,63.0,-100.00,ESE,122,0.0,0.0,82,0.00,,,0.00,meteohub,2013-07-06 06:52:00,
2013-07-06 01:57:00,68.5,62.8,-100.00,ESE,122,0.0,0.0,82,0.00,,,0.00,meteohub,2013-07-06 06:57:00,
2013-07-06 02:02:00,68.5,62.8,-100.00,ESE,122,0.0,0.0,82,0.00,,,0.00,meteohub,2013-07-06 07:02:00,
2013-07-06 02:07:00,68.7,63.0,-100.00,ESE,122,0.0,1.0,82,0.00,,,0.00,meteohub,2013-07-06 07:07:00,
2013-07-06 02:12:00,68.7,63.0,-100.00,ESE,122,0.0,1.0,82,0.00,,,0.00,meteohub,2013-07-06 07:12:00,
2013-07-06 02:17:00,68.7,63.0,-100.00,ESE,122,0.0,1.0,82,0.00,,,0.00,meteohub,2013-07-06 07:17:00,
2013-07-06 02:22:00,68.7,63.0,-100.00,ESE,123,0.0,0.0,82,0.00,,,0.00,meteohub,2013-07-06 07:22:00,
2013-07-06 02:27:00,68.9,63.1,-100.00,ESE,122,0.0,1.0,82,0.00,,,0.00,meteohub,2013-07-06 07:27:00,
2013-07-06 02:32:00,69.1,63.3,-100.00,ESE,123,0.0,1.0,82,0.00,,,0.00,meteohub,2013-07-06 07:32:00,
2013-07-06 02:37:00,69.1,63.3,-100.00,ESE,122,0.0,1.0,82,0.00,,,0.00,meteohub,2013-07-06 07:37:00,
2013-07-06 02:42:00,69.1,63.3,-100.00,ESE,122,0.0,1.0,82,0.00,,,0.00,meteohub,2013-07-06 07:42:00,
2013-07-06 02:47:00,69.1,63.3,-100.00,ESE,123,0.0,1.0,82,0.00,,,0.00,meteohub,2013-07-06 07:47:00,
2013-07-06 02:52:00,69.1,63.3,-100.00,ESE,122,0.0,1.0,82,0.00,,,0.00,meteohub,2013-07-06 07:52:00,
2013-07-06 02:57:00,69.3,63.5,-100.00,ESE,123,0.0,1.0,82,0.00,,,0.00,meteohub,2013-07-06 07:57:00,
2013-07-06 03:02:00,69.3,63.5,-100.00,ESE,123,0.0,1.0,82,0.00,,,0.00,meteohub,2013-07-06 08:02:00,
2013-07-06 03:07:00,69.1,63.7,-100.00,ESE,123,0.0,1.0,83,0.00,,,0.00,meteohub,2013-07-06 08:07:00,
2013-07-06 03:12:00,68.7,63.3,-100.00,ESE,123,0.0,1.0,83,0.00,,,0.00,meteohub,2013-07-06 08:12:00,
2013-07-06 03:17:00,68.5,63.1,-100.00,ESE,123,0.0,1.0,83,0.00,,,0.00,meteohub,2013-07-06 08:17:00,
2013-07-06 03:22:00,68.2,63.1,-100.00,ESE,123,0.0,1.0,84,0.00,,,0.00,meteohub,2013-07-06 08:22:00,
2013-07-06 03:27:00,68.0,63.0,-100.00,ESE,123,0.0,0.0,84,0.00,,,0.00,meteohub,2013-07-06 08:27:00,
2013-07-06 03:32:00,68.2,63.5,-100.00,ESE,123,0.0,1.0,85,0.00,,,0.00,meteohub,2013-07-06 08:32:00,
2013-07-06 03:37:00,68.2,63.5,-100.00,ESE,123,0.0,1.0,85,0.00,,,0.00,meteohub,2013-07-06 08:37:00,
2013-07-06 03:42:00,68.0,63.0,-100.00,ESE,123,0.0,1.0,84,0.00,,,0.00,meteohub,2013-07-06 08:42:00,
2013-07-06 03:47:00,67.6,63.0,-100.00,ESE,123,0.0,1.0,85,0.00,,,0.00,meteohub,2013-07-06 08:47:00,
2013-07-06 03:52:00,67.3,63.0,-100.00,ESE,123,0.0,0.0,86,0.00,,,0.00,meteohub,2013-07-06 08:52:00,
2013-07-06 03:57:00,66.9,62.6,-100.00,ESE,123,0.0,0.0,86,0.00,,,0.00,meteohub,2013-07-06 08:57:00,
2013-07-06 04:02:00,66.9,63.0,-100.00,ESE,123,0.0,0.0,87,0.00,,,0.00,meteohub,2013-07-06 09:02:00,
2013-07-06 04:07:00,66.9,63.0,-100.00,ESE,123,0.0,1.0,87,0.00,,,0.00,meteohub,2013-07-06 09:07:00,
2013-07-06 04:12:00,66.9,63.0,-100.00,ESE,123,0.0,1.0,87,0.00,,,0.00,meteohub,2013-07-06 09:12:00,
2013-07-06 04:17:00,66.7,62.8,-100.00,ESE,123,0.0,1.0,87,0.00,,,0.00,meteohub,2013-07-06 09:17:00,
2013-07-06 04:22:00,66.6,63.0,-100.00,ESE,123,0.0,1.0,88,0.00,,,0.00,meteohub,2013-07-06 09:22:00,
2013-07-06 04:27:00,66.4,62.8,-100.00,ESE,123,0.0,1.0,88,0.00,,,0.00,meteohub,2013-07-06 09:27:00,
2013-07-06 04:32:00,66.4,62.8,-100.00,ESE,123,0.0,1.0,88,0.00,,,0.00,meteohub,2013-07-06 09:32:00,
2013-07-06 04:37:00,66.4,62.8,-100.00,ESE,123,0.0,1.0,88,0.00,,,0.00,meteohub,2013-07-06 09:37:00,
2013-07-06 04:42:00,66.2,62.8,-100.00,ESE,123,0.0,0.0,89,0.00,,,0.00,meteohub,2013-07-06 09:42:00,
2013-07-06 04:47:00,66.0,62.6,-100.00,ESE,123,0.0,1.0,89,0.00,,,0.00,meteohub,2013-07-06 09:47:00,
2013-07-06 04:52:00,66.0,62.6,-100.00,ESE,123,0.0,1.0,89,0.00,,,0.00,meteohub,2013-07-06 09:52:00,
2013-07-06 04:57:00,66.0,62.6,-100.00,ESE,123,0.0,1.0,89,0.00,,,0.00,meteohub,2013-07-06 09:57:00,
2013-07-06 05:02:00,66.0,63.0,-100.00,ESE,122,0.0,1.0,90,0.00,,,0.00,meteohub,2013-07-06 10:02:00,
2013-07-06 05:07:00,65.8,62.8,-100.00,ESE,123,0.0,1.0,90,0.00,,,0.00,meteohub,2013-07-06 10:07:00,
2013-07-06 05:12:00,65.8,62.8,-100.00,ESE,123,0.0,0.0,90,0.00,,,0.00,meteohub,2013-07-06 10:12:00,
2013-07-06 05:17:00,65.7,62.6,-100.00,ESE,122,0.0,0.0,90,0.00,,,0.00,meteohub,2013-07-06 10:17:00,
2013-07-06 05:22:00,65.7,62.6,-100.00,ESE,123,0.0,0.0,90,0.00,,,0.00,meteohub,2013-07-06 10:22:00,
2013-07-06 05:27:00,65.7,63.0,-100.00,ESE,123,0.0,0.0,91,0.00,,,0.00,meteohub,2013-07-06 10:27:00,
2013-07-06 05:32:00,65.7,63.0,-100.00,ESE,123,0.0,0.0,91,0.00,,,0.00,meteohub,2013-07-06 10:32:00,
2013-07-06 05:37:00,65.7,63.0,-100.00,ESE,123,0.0,1.0,91,0.00,,,0.00,meteohub,2013-07-06 10:37:00,
2013-07-06 05:42:00,65.7,63.0,-100.00,ESE,122,0.0,1.0,91,0.00,,,0.00,meteohub,2013-07-06 10:42:00,
2013-07-06 05:47:00,65.7,63.0,-100.00,ESE,122,0.0,1.0,91,0.00,,,0.00,meteohub,2013-07-06 10:47:00,
2013-07-06 05:52:00,65.8,63.1,-100.00,ESE,122,0.0,1.0,91,0.00,,,0.00,meteohub,2013-07-06 10:52:00,
2013-07-06 05:57:00,65.8,63.1,-100.00,ESE,122,0.0,1.0,91,0.00,,,0.00,meteohub,2013-07-06 10:57:00,
2013-07-06 06:02:00,65.8,63.1,-100.00,ESE,122,0.0,1.0,91,0.00,,,0.00,meteohub,2013-07-06 11:02:00,
2013-07-06 06:03:00,65.8,63.1,-100.00,ESE,122,0.0,1.0,91,0.00,,,0.00,meteohub,2013-07-06 11:03:00,
2013-07-06 06:08:00,65.8,63.5,-100.00,ESE,122,0.0,1.0,92,0.00,,,0.00,meteohub,2013-07-06 11:08:00,
2013-07-06 06:13:00,66.0,63.7,-100.00,ESE,122,0.0,1.0,92,0.00,,,0.00,meteohub,2013-07-06 11:13:00,
2013-07-06 06:18:00,66.0,63.7,-100.00,ESE,122,0.0,1.0,92,0.00,,,0.00,meteohub,2013-07-06 11:18:00,
2013-07-06 06:23:00,66.0,63.7,-100.00,ESE,122,0.0,1.0,92,0.00,,,0.00,meteohub,2013-07-06 11:23:00,
2013-07-06 06:28:00,66.0,63.7,-100.00,ESE,122,0.0,1.0,92,0.00,,,0.00,meteohub,2013-07-06 11:28:00,
2013-07-06 06:33:00,66.4,64.0,-100.00,ESE,122,0.0,1.0,92,0.00,,,0.00,meteohub,2013-07-06 11:33:00,
2013-07-06 06:38:00,66.7,64.4,-100.00,ESE,122,0.0,2.0,92,0.00,,,0.00,meteohub,2013-07-06 11:38:00,
2013-07-06 06:43:00,66.9,64.6,-100.00,ESE,122,0.0,2.0,92,0.00,,,0.00,meteohub,2013-07-06 11:43:00,
2013-07-06 06:48:00,67.5,65.1,-100.00,ESE,122,0.0,2.0,92,0.00,,,0.00,meteohub,2013-07-06 11:48:00,
2013-07-06 06:53:00,67.8,65.5,-100.00,ESE,122,0.0,2.0,92,0.00,,,0.00,meteohub,2013-07-06 11:53:00,
2013-07-06 06:58:00,68.2,65.5,-100.00,ESE,122,0.0,0.0,91,0.00,,,0.00,meteohub,2013-07-06 11:58:00,
2013-07-06 07:03:00,68.5,65.8,-100.00,ESE,122,0.0,1.0,91,0.00,,,0.00,meteohub,2013-07-06 12:03:00,
2013-07-06 07:08:00,69.1,66.4,-100.00,ESE,122,0.0,3.0,91,0.00,,,0.00,meteohub,2013-07-06 12:08:00,
2013-07-06 07:13:00,69.4,66.4,-100.00,ESE,122,0.0,3.0,90,0.00,,,0.00,meteohub,2013-07-06 12:13:00,
2013-07-06 07:18:00,69.6,66.6,-100.00,ESE,123,0.0,3.0,90,0.00,,,0.00,meteohub,2013-07-06 12:18:00,
2013-07-06 07:23:00,70.0,66.6,-100.00,ESE,119,0.0,1.0,89,0.00,,,0.00,meteohub,2013-07-06 12:23:00,
2013-07-06 07:28:00,70.3,66.9,-100.00,ESE,121,2.0,2.0,89,0.00,,,0.00,meteohub,2013-07-06 12:28:00,
2013-07-06 07:32:00,70.7,66.9,-100.00,ESE,121,0.0,3.0,88,0.00,,,0.00,meteohub,2013-07-06 12:32:00,
2013-07-06 07:37:00,71.1,67.3,-100.00,SE,124,2.0,3.0,88,0.00,,,0.00,meteohub,2013-07-06 12:37:00,
2013-07-06 07:42:00,71.6,67.5,-100.00,SE,126,0.0,4.0,87,0.00,,,0.00,meteohub,2013-07-06 12:42:00,
2013-07-06 07:47:00,72.1,67.6,-100.00,SE,129,0.0,4.0,86,0.00,,,0.00,meteohub,2013-07-06 12:47:00,
2013-07-06 07:52:00,72.9,68.0,-100.00,SSE,160,0.0,4.0,85,0.00,,,0.00,meteohub,2013-07-06 12:52:00,
2013-07-06 07:57:00,73.2,68.2,-100.00,SE,130,3.0,3.0,84,0.00,,,0.00,meteohub,2013-07-06 12:57:00,
2013-07-06 08:02:00,73.8,68.4,-100.00,SE,141,0.0,5.0,83,0.00,,,0.00,meteohub,2013-07-06 13:02:00,
2013-07-06 08:07:00,74.5,68.2,-100.00,SE,141,0.0,5.0,81,0.00,,,0.00,meteohub,2013-07-06 13:07:00,
2013-07-06 08:12:00,75.0,68.4,-100.00,ESE,108,0.0,5.0,80,0.00,,,0.00,meteohub,2013-07-06 13:12:00,
2013-07-06 08:17:00,75.4,68.4,-100.00,ESE,110,0.0,4.0,79,0.00,,,0.00,meteohub,2013-07-06 13:17:00,
2013-07-06 08:22:00,75.6,68.5,-100.00,ESE,111,0.0,4.0,79,0.00,,,0.00,meteohub,2013-07-06 13:22:00,
2013-07-06 08:27:00,75.7,68.4,-100.00,ESE,117,0.0,6.0,78,0.00,,,0.00,meteohub,2013-07-06 13:27:00,
2013-07-06 08:32:00,75.6,68.5,-100.00,SSE,160,0.0,7.0,79,0.00,,,0.00,meteohub,2013-07-06 13:32:00,
2013-07-06 08:37:00,75.9,68.5,-100.00,SSE,153,0.0,7.0,78,0.00,,,0.00,meteohub,2013-07-06 13:37:00,
2013-07-06 08:42:00,76.5,69.1,-100.00,SSE,152,1.0,7.0,78,0.00,,,0.00,meteohub,2013-07-06 13:42:00,
2013-07-06 08:47:00,76.8,68.7,-100.00,SE,132,0.0,9.0,76,0.00,,,0.00,meteohub,2013-07-06 13:47:00,
2013-07-06 08:52:00,77.2,68.7,-100.00,ESE,122,0.0,9.0,75,0.00,,,0.00,meteohub,2013-07-06 13:52:00,
2013-07-06 08:57:00,77.4,68.4,-100.00,SSE,159,5.0,5.0,74,0.00,,,0.00,meteohub,2013-07-06 13:57:00,
2013-07-06 09:02:00,77.9,68.9,-100.00,SSE,159,0.0,6.0,74,0.00,,,0.00,meteohub,2013-07-06 14:02:00,
2013-07-06 09:07:00,78.1,68.4,-100.00,SSE,148,0.0,6.0,72,0.00,,,0.00,meteohub,2013-07-06 14:07:00,
2013-07-06 09:12:00,78.3,68.0,-100.00,SE,146,0.0,6.0,71,0.00,,,0.00,meteohub,2013-07-06 14:12:00,
2013-07-06 09:17:00,78.4,68.7,-100.00,SSE,163,0.0,6.0,72,0.00,,,0.00,meteohub,2013-07-06 14:17:00,
2013-07-06 09:22:00,79.0,68.4,-100.00,South,180,7.0,7.0,70,0.00,,,0.00,meteohub,2013-07-06 14:22:00,
2013-07-06 09:27:00,79.5,68.9,-100.00,ESE,107,2.0,12.0,70,0.00,,,0.00,meteohub,2013-07-06 14:27:00,
2013-07-06 09:32:00,80.1,69.4,-100.00,ESE,105,3.0,12.0,70,0.00,,,0.00,meteohub,2013-07-06 14:32:00,
2013-07-06 09:37:00,80.1,68.9,-100.00,SE,145,0.0,12.0,69,0.00,,,0.00,meteohub,2013-07-06 14:37:00,
2013-07-06 09:42:00,80.4,69.8,-100.00,SE,126,0.0,7.0,70,0.00,,,0.00,meteohub,2013-07-06 14:42:00,
2013-07-06 09:47:00,81.1,69.6,-100.00,South,171,0.0,7.0,68,0.00,,,0.00,meteohub,2013-07-06 14:47:00,
2013-07-06 09:52:00,81.7,69.6,-100.00,ESE,123,0.0,6.0,67,0.00,,,0.00,meteohub,2013-07-06 14:52:00,
2013-07-06 09:57:00,82.2,70.2,-100.00,SSE,161,1.0,10.0,67,0.00,,,0.00,meteohub,2013-07-06 14:57:00,
2013-07-06 10:02:00,82.4,70.0,-100.00,SSE,153,0.0,10.0,66,0.00,,,0.00,meteohub,2013-07-06 15:02:00,
2013-07-06 10:07:00,82.6,69.6,-100.00,South,169,0.0,9.0,65,0.00,,,0.00,meteohub,2013-07-06 15:07:00,
2013-07-06 10:12:00,82.8,69.8,-100.00,South,173,3.0,10.0,65,0.00,,,0.00,meteohub,2013-07-06 15:12:00,
2013-07-06 10:17:00,83.7,69.8,-100.00,South,176,1.0,10.0,63,0.00,,,0.00,meteohub,2013-07-06 15:17:00,
2013-07-06 10:22:00,84.6,70.2,-100.00,SSW,195,0.0,10.0,62,0.00,,,0.00,meteohub,2013-07-06 15:22:00,
2013-07-06 10:27:00,84.7,70.3,-100.00,SE,130,0.0,10.0,62,0.00,,,0.00,meteohub,2013-07-06 15:27:00,
2013-07-06 10:32:00,85.1,70.5,-100.00,SSE,152,0.0,10.0,62,0.00,,,0.00,meteohub,2013-07-06 15:32:00,
2013-07-06 10:37:00,85.6,70.7,-100.00,ESE,113,0.0,8.0,61,0.00,,,0.00,meteohub,2013-07-06 15:37:00,
2013-07-06 10:42:00,84.9,69.4,-100.00,SE,127,0.0,6.0,60,0.00,,,0.00,meteohub,2013-07-06 15:42:00,
2013-07-06 10:47:00,84.7,68.9,-100.00,South,184,0.0,7.0,59,0.00,,,0.00,meteohub,2013-07-06 15:47:00,
2013-07-06 10:52:00,85.3,69.8,-100.00,SW,221,3.0,7.0,60,0.00,,,0.00,meteohub,2013-07-06 15:52:00,
2013-07-06 10:57:00,86.4,69.8,-100.00,South,184,0.0,7.0,58,0.00,,,0.00,meteohub,2013-07-06 15:57:00,
2013-07-06 11:02:00,86.5,69.4,-100.00,SSW,213,0.0,9.0,57,0.00,,,0.00,meteohub,2013-07-06 16:02:00,
2013-07-06 11:07:00,86.7,69.1,-100.00,SSW,204,0.0,11.0,56,0.00,,,0.00,meteohub,2013-07-06 16:07:00,
2013-07-06 11:12:00,86.4,69.3,-100.00,SSW,198,8.0,11.0,57,0.00,,,0.00,meteohub,2013-07-06 16:12:00,
2013-07-06 11:17:00,85.3,69.8,-100.00,SE,134,0.0,11.0,60,0.00,,,0.00,meteohub,2013-07-06 16:17:00,
2013-07-06 11:22:00,84.9,69.4,-100.00,South,180,6.0,11.0,60,0.00,,,0.00,meteohub,2013-07-06 16:22:00,
2013-07-06 11:27:00,85.6,70.2,-100.00,SSW,208,0.0,11.0,60,0.00,,,0.00,meteohub,2013-07-06 16:27:00,
2013-07-06 11:32:00,86.7,70.7,-100.00,South,171,1.0,10.0,59,0.00,,,0.00,meteohub,2013-07-06 16:32:00,
2013-07-06 11:37:00,87.1,71.1,-100.00,East,97,6.0,10.0,59,0.00,,,0.00,meteohub,2013-07-06 16:37:00,
2013-07-06 11:42:00,86.9,69.8,-100.00,South,179,0.0,10.0,57,0.00,,,0.00,meteohub,2013-07-06 16:42:00,
2013-07-06 11:47:00,87.6,71.1,-100.00,SSE,162,1.0,7.0,58,0.00,,,0.00,meteohub,2013-07-06 16:47:00,
2013-07-06 11:52:00,88.3,70.7,-100.00,ESE,107,0.0,7.0,56,0.00,,,0.00,meteohub,2013-07-06 16:52:00,
2013-07-06 11:57:00,88.2,70.5,-100.00,SE,142,0.0,8.0,56,0.00,,,0.00,meteohub,2013-07-06 16:57:00,
2013-07-06 12:02:00,88.3,70.2,-100.00,SE,125,0.0,8.0,55,0.00,,,0.00,meteohub,2013-07-06 17:02:00,
2013-07-06 12:07:00,87.3,69.6,-100.00,SE,125,4.0,9.0,56,0.00,,,0.00,meteohub,2013-07-06 17:07:00,
2013-07-06 12:12:00,88.2,70.5,-100.00,South,184,1.0,9.0,56,0.00,,,0.00,meteohub,2013-07-06 17:12:00,
2013-07-06 12:17:00,88.9,70.7,-100.00,SE,126,3.0,9.0,55,0.00,,,0.00,meteohub,2013-07-06 17:17:00,
2013-07-06 12:22:00,88.5,70.9,-100.00,South,178,0.0,7.0,56,0.00,,,0.00,meteohub,2013-07-06 17:22:00,
2013-07-06 12:27:00,88.3,69.6,-100.00,ESE,117,2.0,13.0,54,0.00,,,0.00,meteohub,2013-07-06 17:27:00,
2013-07-06 12:32:00,88.5,69.8,-100.00,SE,139,0.0,13.0,54,0.00,,,0.00,meteohub,2013-07-06 17:32:00,
2013-07-06 12:37:00,89.1,69.6,-100.00,SSW,192,3.0,9.0,53,0.00,,,0.00,meteohub,2013-07-06 17:37:00,
2013-07-06 12:42:00,89.4,69.4,-100.00,ESE,109,0.0,9.0,52,0.00,,,0.00,meteohub,2013-07-06 17:42:00,
2013-07-06 12:47:00,89.1,69.1,-100.00,ESE,123,5.0,9.0,52,0.00,,,0.00,meteohub,2013-07-06 17:47:00,
2013-07-06 12:52:00,88.9,69.6,-100.00,East,80,6.0,12.0,53,0.00,,,0.00,meteohub,2013-07-06 17:52:00,
2013-07-06 12:57:00,88.3,69.6,-100.00,ESE,111,0.0,12.0,54,0.00,,,0.00,meteohub,2013-07-06 17:57:00,
2013-07-06 13:02:00,87.1,68.9,-100.00,East,87,2.0,12.0,55,0.00,,,0.00,meteohub,2013-07-06 18:02:00,
2013-07-06 13:07:00,86.4,69.3,-100.00,ESE,116,5.0,12.0,57,0.00,,,0.00,meteohub,2013-07-06 18:07:00,
2013-07-06 13:12:00,86.5,70.0,-100.00,ESE,112,3.0,12.0,58,0.00,,,0.00,meteohub,2013-07-06 18:12:00,
2013-07-06 13:17:00,86.4,70.3,-100.00,SE,126,7.0,9.0,59,0.00,,,0.00,meteohub,2013-07-06 18:17:00,
2013-07-06 13:22:00,85.5,70.0,-100.00,ESE,121,0.0,9.0,60,0.00,,,0.00,meteohub,2013-07-06 18:22:00,
2013-07-06 13:27:00,85.8,70.3,-100.00,SE,126,0.0,9.0,60,0.00,,,0.00,meteohub,2013-07-06 18:27:00,
2013-07-06 13:32:00,86.2,70.2,-100.00,ESE,117,6.0,9.0,59,0.00,,,0.00,meteohub,2013-07-06 18:32:00,
2013-07-06 13:37:00,86.4,69.8,-100.00,ESE,122,5.0,7.0,58,0.00,,,0.00,meteohub,2013-07-06 18:37:00,
2013-07-06 13:42:00,86.5,70.5,-100.00,ESE,110,6.0,10.0,59,0.00,,,0.00,meteohub,2013-07-06 18:42:00,
2013-07-06 13:47:00,86.5,70.5,-100.00,SE,129,2.0,10.0,59,0.00,,,0.00,meteohub,2013-07-06 18:47:00,
2013-07-06 13:52:00,87.4,70.9,-100.00,ESE,121,6.0,10.0,58,0.00,,,0.00,meteohub,2013-07-06 18:52:00,
2013-07-06 13:57:00,87.6,69.4,-100.00,SSE,153,0.0,10.0,55,0.00,,,0.00,meteohub,2013-07-06 18:57:00,
2013-07-06 14:02:00,88.0,70.3,-100.00,ESE,117,10.0,13.0,56,0.00,,,0.00,meteohub,2013-07-06 19:02:00,
2013-07-06 14:07:00,87.8,71.2,-100.00,SE,128,3.0,13.0,58,0.00,,,0.00,meteohub,2013-07-06 19:07:00,
2013-07-06 14:12:00,88.9,71.1,-100.00,SSE,155,7.0,13.0,56,0.00,,,0.00,meteohub,2013-07-06 19:12:00,
2013-07-06 14:17:00,89.2,70.9,-100.00,SW,217,3.0,11.0,55,0.00,,,0.00,meteohub,2013-07-06 19:17:00,
2013-07-06 14:22:00,90.0,70.5,-100.00,ESE,116,4.0,11.0,53,0.00,,,0.00,meteohub,2013-07-06 19:22:00,
2013-07-06 14:27:00,89.8,69.8,-100.00,ESE,113,3.0,11.0,52,0.00,,,0.00,meteohub,2013-07-06 19:27:00,
2013-07-06 14:32:00,89.4,70.5,-100.00,ESE,107,3.0,11.0,54,0.00,,,0.00,meteohub,2013-07-06 19:32:00,
2013-07-06 14:37:00,89.4,69.4,-100.00,SE,131,6.0,10.0,52,0.00,,,0.00,meteohub,2013-07-06 19:37:00,
2013-07-06 14:42:00,89.4,70.0,-100.00,ESE,121,0.0,9.0,53,0.00,,,0.00,meteohub,2013-07-06 19:42:00,
2013-07-06 14:47:00,89.2,69.3,-100.00,SE,133,6.0,10.0,52,0.00,,,0.00,meteohub,2013-07-06 19:47:00,
2013-07-06 14:52:00,89.2,69.8,-100.00,SE,140,0.0,11.0,53,0.00,,,0.00,meteohub,2013-07-06 19:52:00,
2013-07-06 14:57:00,90.0,70.5,-100.00,SE,128,0.0,11.0,53,0.00,,,0.00,meteohub,2013-07-06 19:57:00,
2013-07-06 15:02:00,90.0,71.1,-100.00,ESE,104,3.0,11.0,54,0.00,,,0.00,meteohub,2013-07-06 20:02:00,
2013-07-06 15:07:00,90.1,69.6,-100.00,South,182,3.0,11.0,51,0.00,,,0.00,meteohub,2013-07-06 20:07:00,
2013-07-06 15:12:00,90.0,70.0,-100.00,ESE,120,5.0,11.0,52,0.00,,,0.00,meteohub,2013-07-06 20:12:00,
2013-07-06 15:17:00,90.1,68.9,-100.00,SSW,213,0.0,10.0,50,0.00,,,0.00,meteohub,2013-07-06 20:17:00,
2013-07-06 15:22:00,90.1,69.6,-100.00,SE,141,4.0,10.0,51,0.00,,,0.00,meteohub,2013-07-06 20:22:00,
2013-07-06 15:27:00,89.6,69.1,-100.00,SE,126,4.0,10.0,51,0.00,,,0.00,meteohub,2013-07-06 20:27:00,
2013-07-06 15:32:00,89.6,68.5,-100.00,South,176,2.0,10.0,50,0.00,,,0.00,meteohub,2013-07-06 20:32:00,
2013-07-06 15:37:00,89.8,68.7,-100.00,SSE,159,0.0,10.0,50,0.00,,,0.00,meteohub,2013-07-06 20:37:00,
2013-07-06 15:42:00,90.3,68.5,-100.00,SSW,209,0.0,10.0,49,0.00,,,0.00,meteohub,2013-07-06 20:42:00,
2013-07-06 15:47:00,90.7,69.4,-100.00,SE,136,0.0,10.0,50,0.00,,,0.00,meteohub,2013-07-06 20:47:00,
2013-07-06 15:52:00,90.3,69.1,-100.00,South,169,0.0,9.0,50,0.00,,,0.00,meteohub,2013-07-06 20:52:00,
2013-07-06 15:57:00,90.1,68.9,-100.00,ESE,105,0.0,9.0,50,0.00,,,0.00,meteohub,2013-07-06 20:57:00,
2013-07-06 16:02:00,90.3,68.0,-100.00,ESE,111,0.0,8.0,48,0.00,,,0.00,meteohub,2013-07-06 21:02:00,
2013-07-06 16:07:00,89.8,68.0,-100.00,ENE,74,3.0,8.0,49,0.00,,,0.00,meteohub,2013-07-06 21:07:00,
2013-07-06 16:12:00,89.2,68.2,-100.00,SE,138,0.0,7.0,50,0.00,,,0.00,meteohub,2013-07-06 21:12:00,
2013-07-06 16:17:00,89.8,69.8,-100.00,ESE,122,2.0,9.0,52,0.00,,,0.00,meteohub,2013-07-06 21:17:00,
2013-07-06 16:22:00,90.0,68.9,-100.00,ESE,117,5.0,9.0,50,0.00,,,0.00,meteohub,2013-07-06 21:22:00,
2013-07-06 16:27:00,89.6,68.5,-100.00,SE,142,4.0,9.0,50,0.00,,,0.00,meteohub,2013-07-06 21:27:00,
2013-07-06 16:32:00,89.2,68.7,-100.00,South,180,5.0,10.0,51,0.00,,,0.00,meteohub,2013-07-06 21:32:00,
2013-07-06 16:37:00,89.6,68.5,-100.00,ESE,115,0.0,10.0,50,0.00,,,0.00,meteohub,2013-07-06 21:37:00,
2013-07-06 16:42:00,90.0,68.9,-100.00,South,171,7.0,10.0,50,0.00,,,0.00,meteohub,2013-07-06 21:42:00,
2013-07-06 16:47:00,90.1,69.6,-100.00,SE,140,0.0,9.0,51,0.00,,,0.00,meteohub,2013-07-06 21:47:00,
2013-07-06 16:52:00,90.3,68.5,-100.00,South,180,0.0,7.0,49,0.00,,,0.00,meteohub,2013-07-06 21:52:00,
2013-07-06 16:57:00,90.0,68.9,-100.00,ESE,119,0.0,7.0,50,0.00,,,0.00,meteohub,2013-07-06 21:57:00,
2013-07-06 17:02:00,90.0,68.9,-100.00,SE,128,0.0,7.0,50,0.00,,,0.00,meteohub,2013-07-06 22:02:00,
2013-07-06 17:07:00,89.6,68.5,-100.00,SE,128,1.0,7.0,50,0.00,,,0.00,meteohub,2013-07-06 22:07:00,
2013-07-06 17:12:00,89.4,68.4,-100.00,ESE,122,2.0,7.0,50,0.00,,,0.00,meteohub,2013-07-06 22:12:00,
2013-07-06 17:17:00,89.4,68.4,-100.00,SSE,156,4.0,9.0,50,0.00,,,0.00,meteohub,2013-07-06 22:17:00,
2013-07-06 17:22:00,89.4,68.9,-100.00,ESE,121,0.0,9.0,51,0.00,,,0.00,meteohub,2013-07-06 22:22:00,
2013-07-06 17:27:00,89.6,67.8,-100.00,SE,145,0.0,9.0,49,0.00,,,0.00,meteohub,2013-07-06 22:27:00,
2013-07-06 17:32:00,89.4,68.4,-100.00,ESE,122,0.0,9.0,50,0.00,,,0.00,meteohub,2013-07-06 22:32:00,
2013-07-06 17:37:00,89.4,67.8,-100.00,SE,129,2.0,7.0,49,0.00,,,0.00,meteohub,2013-07-06 22:37:00,
2013-07-06 17:42:00,89.2,67.6,-100.00,SE,130,1.0,11.0,49,0.00,,,0.00,meteohub,2013-07-06 22:42:00,
2013-07-06 17:47:00,89.4,68.4,-100.00,SSE,163,0.0,11.0,50,0.00,,,0.00,meteohub,2013-07-06 22:47:00,
2013-07-06 17:52:00,89.2,68.2,-100.00,SE,133,1.0,5.0,50,0.00,,,0.00,meteohub,2013-07-06 22:52:00,
2013-07-06 17:57:00,89.1,69.1,-100.00,SE,126,0.0,10.0,52,0.00,,,0.00,meteohub,2013-07-06 22:57:00,
2013-07-06 18:02:00,88.7,68.2,-100.00,SE,124,5.0,10.0,51,0.00,,,0.00,meteohub,2013-07-06 23:02:00,
2013-07-06 18:07:00,88.0,68.2,-100.00,SE,125,5.0,10.0,52,0.00,,,0.00,meteohub,2013-07-06 23:07:00,
2013-07-06 18:12:00,87.6,68.4,-100.00,ESE,122,0.0,9.0,53,0.00,,,0.00,meteohub,2013-07-06 23:12:00,
2013-07-06 18:17:00,87.4,68.2,-100.00,SE,128,4.0,10.0,53,0.00,,,0.00,meteohub,2013-07-06 23:17:00,
2013-07-06 18:22:00,87.3,68.5,-100.00,ESE,121,4.0,10.0,54,0.00,,,0.00,meteohub,2013-07-06 23:22:00,
2013-07-06 18:27:00,87.3,68.5,-100.00,SE,126,0.0,10.0,54,0.00,,,0.00,meteohub,2013-07-06 23:27:00,
2013-07-06 18:32:00,87.3,68.5,-100.00,SE,128,5.0,7.0,54,0.00,,,0.00,meteohub,2013-07-06 23:32:00,
2013-07-06 18:37:00,87.4,69.3,-100.00,SE,129,0.0,6.0,55,0.00,,,0.00,meteohub,2013-07-06 23:37:00,
2013-07-06 18:42:00,87.6,68.9,-100.00,ESE,114,6.0,6.0,54,0.00,,,0.00,meteohub,2013-07-06 23:42:00,
2013-07-06 18:47:00,87.1,68.9,-100.00,SE,133,5.0,6.0,55,0.00,,,0.00,meteohub,2013-07-06 23:47:00,
2013-07-06 18:52:00,86.5,68.9,-100.00,SE,126,5.0,7.0,56,0.00,,,0.00,meteohub,2013-07-06 23:52:00,
2013-07-06 18:57:00,86.2,68.7,-100.00,East,89,5.0,7.0,56,0.00,,,0.00,meteohub,2013-07-06 23:57:00,
2013-07-06 19:02:00,86.0,68.9,-100.00,SE,132,4.0,7.0,57,0.00,,,0.00,meteohub,2013-07-07 00:02:00,
2013-07-06 19:07:00,85.5,69.1,-100.00,ESE,123,2.0,9.0,58,0.00,,,0.00,meteohub,2013-07-07 00:07:00,
2013-07-06 19:12:00,85.1,69.1,-100.00,ESE,120,3.0,9.0,59,0.00,,,0.00,meteohub,2013-07-07 00:12:00,
2013-07-06 19:17:00,84.7,68.9,-100.00,ESE,118,3.0,9.0,59,0.00,,,0.00,meteohub,2013-07-07 00:17:00,
2013-07-06 19:22:00,84.7,68.9,-100.00,SW,222,1.0,9.0,59,0.00,,,0.00,meteohub,2013-07-07 00:22:00,
2013-07-06 19:27:00,84.4,68.9,-100.00,ESE,111,4.0,9.0,60,0.00,,,0.00,meteohub,2013-07-07 00:27:00,
2013-07-06 19:32:00,84.0,69.1,-100.00,ESE,116,4.0,9.0,61,0.00,,,0.00,meteohub,2013-07-07 00:32:00,
2013-07-06 19:37:00,83.7,68.7,-100.00,East,79,4.0,9.0,61,0.00,,,0.00,meteohub,2013-07-07 00:37:00,
2013-07-06 19:42:00,83.3,68.4,-100.00,SE,124,0.0,9.0,61,0.00,,,0.00,meteohub,2013-07-07 00:42:00,
2013-07-06 19:47:00,82.9,68.2,-100.00,SE,126,0.0,9.0,61,0.00,,,0.00,meteohub,2013-07-07 00:47:00,
2013-07-06 19:52:00,82.6,68.2,-100.00,ESE,123,0.0,7.0,62,0.00,,,0.00,meteohub,2013-07-07 00:52:00,
2013-07-06 19:57:00,82.2,68.4,-100.00,ESE,123,0.0,7.0,63,0.00,,,0.00,meteohub,2013-07-07 00:57:00,
2013-07-06 20:02:00,81.9,68.0,-100.00,SE,129,3.0,7.0,63,0.00,,,0.00,meteohub,2013-07-07 01:02:00,
2013-07-06 20:07:00,81.5,67.6,-100.00,SE,125,4.0,6.0,63,0.00,,,0.00,meteohub,2013-07-07 01:07:00,
2013-07-06 20:12:00,81.3,68.0,-100.00,SE,132,1.0,6.0,64,0.00,,,0.00,meteohub,2013-07-07 01:12:00,
2013-07-06 20:17:00,81.3,67.5,-100.00,ESE,118,0.0,7.0,63,0.00,,,0.00,meteohub,2013-07-07 01:17:00,
2013-07-06 20:22:00,81.1,67.8,-100.00,ESE,122,5.0,7.0,64,0.00,,,0.00,meteohub,2013-07-07 01:22:00,
2013-07-06 20:27:00,80.8,67.5,-100.00,ESE,114,1.0,7.0,64,0.00,,,0.00,meteohub,2013-07-07 01:27:00,
2013-07-06 20:32:00,80.6,67.3,-100.00,ESE,123,0.0,10.0,64,0.00,,,0.00,meteohub,2013-07-07 01:32:00,
2013-07-06 20:37:00,80.4,67.1,-100.00,ESE,121,0.0,10.0,64,0.00,,,0.00,meteohub,2013-07-07 01:37:00,
2013-07-06 20:42:00,80.1,66.7,-100.00,SE,128,4.0,10.0,64,0.00,,,0.00,meteohub,2013-07-07 01:42:00,
2013-07-06 20:47:00,80.1,66.7,-100.00,ESE,121,0.0,7.0,64,0.00,,,0.00,meteohub,2013-07-07 01:47:00,
2013-07-06 20:52:00,79.7,66.9,-100.00,ESE,120,0.0,7.0,65,0.00,,,0.00,meteohub,2013-07-07 01:52:00,
2013-07-06 20:57:00,79.3,66.6,-100.00,ESE,123,0.0,7.0,65,0.00,,,0.00,meteohub,2013-07-07 01:57:00,
2013-07-06 21:02:00,79.2,66.7,-100.00,ESE,121,0.0,3.0,66,0.00,,,0.00,meteohub,2013-07-07 02:02:00,
2013-07-06 21:07:00,78.6,66.4,-100.00,ESE,119,0.0,3.0,66,0.00,,,0.00,meteohub,2013-07-07 02:07:00,
2013-07-06 21:13:00,78.6,66.4,-100.00,ESE,119,0.0,3.0,66,0.00,,,0.00,meteohub,2013-07-07 02:13:00,
2013-07-06 21:18:00,78.3,66.4,-100.00,ESE,118,0.0,1.0,67,0.00,,,0.00,meteohub,2013-07-07 02:18:00,
2013-07-06 21:23:00,78.1,66.2,-100.00,ESE,119,0.0,1.0,67,0.00,,,0.00,meteohub,2013-07-07 02:23:00,
2013-07-06 21:28:00,77.7,66.4,-100.00,ESE,119,0.0,1.0,68,0.00,,,0.00,meteohub,2013-07-07 02:28:00,
2013-07-06 21:33:00,77.4,66.0,-100.00,ESE,122,0.0,1.0,68,0.00,,,0.00,meteohub,2013-07-07 02:33:00,
2013-07-06 21:38:00,77.2,66.2,-100.00,ESE,122,0.0,1.0,69,0.00,,,0.00,meteohub,2013-07-07 02:38:00,
2013-07-06 21:43:00,77.0,66.0,-100.00,ESE,122,1.0,3.0,69,0.00,,,0.00,meteohub,2013-07-07 02:43:00,
2013-07-06 21:48:00,76.8,65.8,-100.00,ESE,123,0.0,3.0,69,0.00,,,0.00,meteohub,2013-07-07 02:48:00,
2013-07-06 21:53:00,76.6,65.7,-100.00,SE,124,0.0,3.0,69,0.00,,,0.00,meteohub,2013-07-07 02:53:00,
2013-07-06 21:58:00,76.5,66.0,-100.00,SE,125,0.0,1.0,70,0.00,,,0.00,meteohub,2013-07-07 02:58:00,
2013-07-06 22:03:00,75.9,65.8,-100.00,SE,125,0.0,1.0,71,0.00,,,0.00,meteohub,2013-07-07 03:03:00,
2013-07-06 22:08:00,75.9,65.8,-100.00,SE,125,0.0,1.0,71,0.00,,,0.00,meteohub,2013-07-07 03:08:00,
2013-07-06 22:13:00,75.7,65.7,-100.00,SE,125,0.0,1.0,71,0.00,,,0.00,meteohub,2013-07-07 03:13:00,
2013-07-06 22:18:00,75.7,65.7,-100.00,SE,125,0.0,1.0,71,0.00,,,0.00,meteohub,2013-07-07 03:18:00,
2013-07-06 22:23:00,75.6,65.5,-100.00,SE,126,0.0,1.0,71,0.00,,,0.00,meteohub,2013-07-07 03:23:00,
2013-07-06 22:28:00,75.4,65.7,-100.00,SE,126,0.0,1.0,72,0.00,,,0.00,meteohub,2013-07-07 03:28:00,
2013-07-06 22:33:00,75.0,65.3,-100.00,SE,126,0.0,1.0,72,0.00,,,0.00,meteohub,2013-07-07 03:33:00,
2013-07-06 22:38:00,74.8,65.1,-100.00,SE,126,0.0,1.0,72,0.00,,,0.00,meteohub,2013-07-07 03:38:00,
2013-07-06 22:43:00,74.8,65.1,-100.00,SE,126,0.0,1.0,72,0.00,,,0.00,meteohub,2013-07-07 03:43:00,
2013-07-06 22:48:00,74.8,65.1,-100.00,ESE,123,0.0,1.0,72,0.00,,,0.00,meteohub,2013-07-07 03:48:00,
2013-07-06 22:53:00,74.8,65.1,-100.00,ESE,123,0.0,1.0,72,0.00,,,0.00,meteohub,2013-07-07 03:53:00,
2013-07-06 22:58:00,74.8,65.1,-100.00,ESE,123,0.0,1.0,72,0.00,,,0.00,meteohub,2013-07-07 03:58:00,
2013-07-06 23:01:00,74.7,65.1,-100.00,ESE,123,0.0,1.0,72,0.00,,,0.00,meteohub,2013-07-07 04:01:00,
2013-07-06 23:06:00,74.7,65.5,-100.00,ESE,123,0.0,1.0,73,0.00,,,0.00,meteohub,2013-07-07 04:06:00,
2013-07-06 23:11:00,74.5,65.3,-100.00,ESE,123,0.0,1.0,73,0.00,,,0.00,meteohub,2013-07-07 04:11:00,
2013-07-06 23:16:00,74.3,65.1,-100.00,ESE,123,0.0,1.0,73,0.00,,,0.00,meteohub,2013-07-07 04:16:00,
2013-07-06 23:21:00,73.9,65.1,-100.00,ESE,122,0.0,1.0,74,0.00,,,0.00,meteohub,2013-07-07 04:21:00,
2013-07-06 23:26:00,73.8,64.9,-100.00,ESE,123,0.0,1.0,74,0.00,,,0.00,meteohub,2013-07-07 04:26:00,
2013-07-06 23:31:00,73.8,65.3,-100.00,ESE,122,0.0,1.0,75,0.00,,,0.00,meteohub,2013-07-07 04:31:00,
2013-07-06 23:36:00,73.8,65.3,-100.00,ESE,123,0.0,0.0,75,0.00,,,0.00,meteohub,2013-07-07 04:36:00,
2013-07-06 23:41:00,73.8,65.3,-100.00,ESE,122,0.0,1.0,75,0.00,,,0.00,meteohub,2013-07-07 04:41:00,
2013-07-06 23:46:00,73.8,65.3,-100.00,ESE,122,0.0,1.0,75,0.00,,,0.00,meteohub,2013-07-07 04:46:00,
2013-07-06 23:51:00,73.8,65.3,-100.00,ESE,122,0.0,1.0,75,0.00,,,0.00,meteohub,2013-07-07 04:51:00,
2013-07-06 23:56:00,73.6,65.5,-100.00,ESE,122,0.0,1.0,76,0.00,,,0.00,meteohub,2013-07-07 04:56:00,